createdAt,value
2019-03-10T00:00:34.337Z,98848.90
2019-03-10T00:01:38.755Z,98845.85
2019-03-10T00:02:43.039Z,98843.18
2019-03-10T00:03:47.519Z,98844.06
2019-03-10T00:04:51.893Z,98850.02
2019-03-10T00:05:56.418Z,98848.97
2019-03-10T00:07:00.769Z,98847.86
2019-03-10T00:08:07.668Z,98846.52
2019-03-10T00:09:09.754Z,98851.75
2019-03-10T00:10:14.229Z,98850.30
2019-03-10T00:11:18.596Z,98846.39
2019-03-10T00:12:22.919Z,98848.67
2019-03-10T00:13:27.225Z,98850.45
2019-03-10T00:14:31.643Z,98852.91
2019-03-10T00:15:35.948Z,98854.25
2019-03-10T00:16:40.273Z,98852.54
2019-03-10T00:17:44.442Z,98856.26
2019-03-10T00:18:48.848Z,98854.10
2019-03-10T00:19:53.182Z,98863.03
2019-03-10T00:20:57.706Z,98854.89
2019-03-10T00:22:01.769Z,98862.69
2019-03-10T00:23:06.223Z,98860.09
2019-03-10T00:24:10.632Z,98864.40
2019-03-10T00:25:15.026Z,98871.09
2019-03-10T00:26:20.884Z,98868.48
2019-03-10T00:27:23.738Z,98872.31
2019-03-10T00:28:28.365Z,98870.52
2019-03-10T00:29:32.586Z,98870.23
2019-03-10T00:30:36.972Z,98869.70
2019-03-10T00:31:41.378Z,98873.80
2019-03-10T00:32:45.786Z,98880.26
2019-03-10T00:33:50.403Z,98874.39
2019-03-10T00:34:54.974Z,98879.44
2019-03-10T00:35:59.360Z,98885.83
2019-03-10T00:37:03.664Z,98888.21
2019-03-10T00:38:07.957Z,98886.58
2019-03-10T00:40:01.553Z,98890.37
2019-03-10T00:41:15.493Z,98889.08
2019-03-10T00:42:38.242Z,98878.18
2019-03-10T00:43:53.289Z,98876.32
2019-03-10T00:46:09.483Z,98877.66
2019-03-10T00:47:44.513Z,98879.66
2019-03-10T00:50:10.230Z,98886.13
2019-03-10T00:52:23.369Z,98887.77
2019-03-10T00:53:27.603Z,98892.70
2019-03-10T00:54:31.961Z,98895.37
2019-03-10T00:55:36.380Z,98898.05
2019-03-10T00:56:40.637Z,98898.05
2019-03-10T00:57:44.727Z,98897.61
2019-03-10T00:58:48.903Z,98906.16
2019-03-10T00:59:53.036Z,98902.95
2019-03-10T01:00:57.162Z,98899.69
2019-03-10T01:02:01.334Z,98905.63
2019-03-10T01:03:05.690Z,98905.94
2019-03-10T01:04:10.109Z,98902.73
2019-03-10T01:05:14.688Z,98901.70
2019-03-10T01:06:18.737Z,98899.86
2019-03-10T01:07:22.919Z,98893.17
2019-03-10T01:08:27.071Z,98899.54
2019-03-10T01:09:31.309Z,98900.58
2019-03-10T01:10:35.426Z,98897.09
2019-03-10T01:11:39.656Z,98902.73
2019-03-10T01:12:44.205Z,98901.92
2019-03-10T01:13:48.612Z,98907.05
2019-03-10T01:14:53.056Z,98906.23
2019-03-10T01:15:57.675Z,98906.23
2019-03-10T01:17:01.988Z,98911.91
2019-03-10T01:18:06.478Z,98914.26
2019-03-10T01:19:10.821Z,98913.25
2019-03-10T01:20:15.541Z,98911.58
2019-03-10T01:21:20.258Z,98908.91
2019-03-10T01:22:24.676Z,98905.86
2019-03-10T01:23:29.213Z,98913.59
2019-03-10T01:24:33.595Z,98915.67
2019-03-10T01:25:37.826Z,98913.81
2019-03-10T01:26:42.346Z,98914.92
2019-03-10T01:27:46.621Z,98913.59
2019-03-10T01:28:50.992Z,98913.88
2019-03-10T01:29:55.382Z,98905.04
2019-03-10T01:31:06.294Z,98912.03
2019-03-10T01:32:24.533Z,98913.66
2019-03-10T01:33:45.137Z,98913.66
2019-03-10T01:34:59.152Z,98915.00
2019-03-10T01:36:03.600Z,98912.77
2019-03-10T01:37:07.993Z,98919.45
2019-03-10T01:38:12.387Z,98917.83
2019-03-10T01:39:16.642Z,98919.88
2019-03-10T01:40:21.023Z,98919.58
2019-03-10T01:41:25.457Z,98919.88
2019-03-10T01:42:29.837Z,98919.88
2019-03-10T01:43:34.216Z,98914.52
2019-03-10T01:44:38.321Z,98912.89
2019-03-10T01:45:42.407Z,98908.80
2019-03-10T01:46:46.440Z,98912.06
2019-03-10T01:47:50.442Z,98918.76
2019-03-10T01:48:54.486Z,98919.28
2019-03-10T01:49:58.595Z,98923.06
2019-03-10T01:51:02.605Z,98923.88
2019-03-10T01:52:06.663Z,98922.77
2019-03-10T01:53:10.738Z,98930.28
2019-03-10T01:54:14.878Z,98927.00
2019-03-10T01:55:18.947Z,98932.06
2019-03-10T01:56:22.982Z,98933.69
2019-03-10T01:57:27.030Z,98935.03
2019-03-10T01:58:31.041Z,98935.03
2019-03-10T01:59:35.079Z,98936.38
2019-03-10T02:00:39.429Z,98943.80
2019-03-10T02:01:49.933Z,98945.44
2019-03-10T02:02:53.957Z,98951.83
2019-03-10T02:03:58.017Z,98949.15
2019-03-10T02:05:02.098Z,98946.48
2019-03-10T02:06:06.234Z,98951.86
2019-03-10T02:07:10.250Z,98947.93
2019-03-10T02:08:14.348Z,98953.91
2019-03-10T02:09:18.440Z,98946.89
2019-03-10T02:10:22.490Z,98946.89
2019-03-10T02:11:26.629Z,98945.55
2019-03-10T02:12:30.658Z,98948.75
2019-03-10T02:13:34.715Z,98951.64
2019-03-10T02:14:38.769Z,98950.75
2019-03-10T02:15:42.924Z,98958.69
2019-03-10T02:16:47.027Z,98949.85
2019-03-10T02:17:51.116Z,98949.85
2019-03-10T02:18:55.192Z,98950.67
2019-03-10T02:19:59.260Z,98949.85
2019-03-10T02:21:03.372Z,98942.83
2019-03-10T02:22:07.491Z,98951.30
2019-03-10T02:23:11.550Z,98948.33
2019-03-10T02:24:23.462Z,98945.95
2019-03-10T02:25:19.856Z,98943.27
2019-03-10T02:26:23.924Z,98941.20
2019-03-10T02:27:27.998Z,98941.94
2019-03-10T02:28:32.040Z,98944.31
2019-03-10T02:29:36.100Z,98945.95
2019-03-10T02:30:40.111Z,98952.55
2019-03-10T02:31:44.151Z,98953.48
2019-03-10T02:32:48.276Z,98951.11
2019-03-10T02:33:52.301Z,98951.03
2019-03-10T02:34:56.602Z,98949.77
2019-03-10T02:36:00.598Z,98948.44
2019-03-10T02:37:04.706Z,98949.17
2019-03-10T02:38:08.891Z,98955.86
2019-03-10T02:39:12.961Z,98945.23
2019-03-10T02:40:17.109Z,98944.13
2019-03-10T02:41:21.469Z,98942.70
2019-03-10T02:42:25.771Z,98953.19
2019-03-10T02:43:30.206Z,98950.81
2019-03-10T02:44:34.492Z,98946.28
2019-03-10T02:45:38.878Z,98946.80
2019-03-10T02:46:43.248Z,98950.81
2019-03-10T02:47:47.620Z,98945.69
2019-03-10T02:48:52.171Z,98946.20
2019-03-10T02:49:56.544Z,98951.55
2019-03-10T02:51:00.929Z,98953.92
2019-03-10T02:52:05.256Z,98956.81
2019-03-10T02:53:09.552Z,98963.72
2019-03-10T02:54:13.914Z,98962.91
2019-03-10T02:55:18.182Z,98959.38
2019-03-10T02:56:22.485Z,98965.77
2019-03-10T02:57:26.914Z,98969.78
2019-03-10T02:58:31.384Z,98967.55
2019-03-10T02:59:35.639Z,98971.66
2019-03-10T03:00:39.897Z,98970.33
2019-03-10T03:01:44.241Z,98971.66
2019-03-10T03:02:48.583Z,98970.66
2019-03-10T03:03:52.985Z,98968.91
2019-03-10T03:04:57.603Z,98973.44
2019-03-10T03:06:02.032Z,98974.98
2019-03-10T03:07:06.423Z,98968.03
2019-03-10T03:08:10.714Z,98976.34
2019-03-10T03:09:15.095Z,98981.70
2019-03-10T03:10:19.221Z,98977.98
2019-03-10T03:11:23.267Z,98981.17
2019-03-10T03:12:27.402Z,98982.43
2019-03-10T03:13:31.442Z,98985.10
2019-03-10T03:14:35.500Z,98990.45
2019-03-10T03:15:39.857Z,98991.48
2019-03-10T03:16:44.222Z,98986.14
2019-03-10T03:17:48.565Z,98987.48
2019-03-10T03:18:53.510Z,98987.17
2019-03-10T03:19:57.852Z,98996.23
2019-03-10T03:21:02.276Z,98992.70
2019-03-10T03:22:06.575Z,98995.08
2019-03-10T03:23:10.964Z,98990.77
2019-03-10T03:24:15.305Z,98997.97
2019-03-10T03:25:19.661Z,98985.14
2019-03-10T03:26:24.142Z,98991.44
2019-03-10T03:27:28.444Z,98991.35
2019-03-10T03:28:32.770Z,98995.14
2019-03-10T03:29:37.051Z,98996.39
2019-03-10T03:30:41.378Z,98999.06
2019-03-10T03:31:45.699Z,99000.80
2019-03-10T03:32:50.119Z,99003.40
2019-03-10T03:33:54.617Z,99005.03
2019-03-10T03:34:59.079Z,99009.86
2019-03-10T03:36:11.637Z,99005.03
2019-03-10T03:37:18.406Z,99018.39
2019-03-10T03:38:26.605Z,99013.88
2019-03-10T03:39:35.291Z,99018.70
2019-03-10T03:40:40.419Z,99028.18
2019-03-10T03:41:44.729Z,99023.35
2019-03-10T03:42:49.062Z,99028.70
2019-03-10T03:43:53.431Z,99027.66
2019-03-10T03:44:57.786Z,99034.04
2019-03-10T03:46:02.314Z,99030.77
2019-03-10T03:47:06.659Z,99039.59
2019-03-10T03:48:11.071Z,99041.33
2019-03-10T03:49:15.496Z,99041.23
2019-03-10T03:50:19.851Z,99044.42
2019-03-10T03:51:24.136Z,99040.63
2019-03-10T03:52:28.509Z,99045.06
2019-03-10T03:53:32.893Z,99039.60
2019-03-10T03:54:37.250Z,99039.51
2019-03-10T03:55:41.672Z,99034.89
2019-03-10T03:56:46.026Z,99040.41
2019-03-10T03:57:50.349Z,99030.38
2019-03-10T03:58:54.834Z,99035.41
2019-03-10T03:59:58.930Z,99035.80
2019-03-10T04:01:12.446Z,99038.19
2019-03-10T04:02:20.873Z,99037.46
2019-03-10T04:03:25.359Z,99037.88
2019-03-10T04:04:29.821Z,99038.91
2019-03-10T04:05:34.233Z,99046.58
2019-03-10T04:06:38.593Z,99048.64
2019-03-10T04:07:42.971Z,99056.04
2019-03-10T04:08:47.449Z,99053.38
2019-03-10T04:09:51.709Z,99062.41
2019-03-10T04:10:56.049Z,99061.47
2019-03-10T04:12:00.271Z,99058.30
2019-03-10T04:13:04.341Z,99058.98
2019-03-10T04:14:08.750Z,99062.69
2019-03-10T04:15:13.094Z,99061.77
2019-03-10T04:16:17.469Z,99063.92
2019-03-10T04:17:21.944Z,99063.11
2019-03-10T04:18:26.410Z,99068.14
2019-03-10T04:19:30.683Z,99065.98
2019-03-10T04:20:34.988Z,99072.14
2019-03-10T04:21:39.326Z,99067.01
2019-03-10T04:22:43.821Z,99064.21
2019-03-10T04:23:49.899Z,99063.91
2019-03-10T04:24:54.514Z,99066.58
2019-03-10T04:26:02.243Z,99062.27
2019-03-10T04:29:25.778Z,99066.77
2019-03-10T04:30:29.823Z,99072.09
2019-03-10T04:31:34.370Z,99077.95
2019-03-10T04:32:38.574Z,99070.45
2019-03-10T04:33:42.950Z,99080.83
2019-03-10T04:34:47.499Z,99081.23
2019-03-10T04:35:51.860Z,99088.59
2019-03-10T04:36:56.216Z,99098.86
2019-03-10T04:38:00.665Z,99092.60
2019-03-10T04:39:06.056Z,99102.45
2019-03-10T04:40:10.600Z,99096.16
2019-03-10T04:41:15.123Z,99097.29
2019-03-10T04:42:19.385Z,99096.58
2019-03-10T04:43:23.688Z,99097.91
2019-03-10T04:44:28.117Z,99096.27
2019-03-10T04:45:32.559Z,99110.63
2019-03-10T04:46:36.854Z,99108.75
2019-03-10T04:47:41.114Z,99117.06
2019-03-10T04:48:45.559Z,99116.44
2019-03-10T04:49:49.927Z,99117.27
2019-03-10T04:50:54.236Z,99116.75
2019-03-10T04:51:58.485Z,99123.31
2019-03-10T04:53:02.885Z,99121.98
2019-03-10T04:54:07.077Z,99121.84
2019-03-10T04:55:20.277Z,99123.69
2019-03-10T04:56:33.964Z,99128.20
2019-03-10T04:57:38.413Z,99127.59
2019-03-10T04:58:46.725Z,99129.12
2019-03-10T04:59:51.057Z,99132.87
2019-03-10T05:00:56.596Z,99133.48
2019-03-10T05:02:01.023Z,99134.83
2019-03-10T05:03:05.503Z,99137.80
2019-03-10T05:04:09.817Z,99136.27
2019-03-10T05:05:14.144Z,99132.37
2019-03-10T05:06:18.487Z,99138.42
2019-03-10T05:07:22.953Z,99142.41
2019-03-10T05:08:27.371Z,99142.41
2019-03-10T05:09:31.753Z,99142.11
2019-03-10T05:10:36.225Z,99137.48
2019-03-10T05:11:40.230Z,99134.99
2019-03-10T05:12:44.282Z,99140.33
2019-03-10T05:13:48.332Z,99138.58
2019-03-10T05:14:52.335Z,99137.86
2019-03-10T05:15:56.423Z,99139.70
2019-03-10T05:17:00.489Z,99136.16
2019-03-10T05:18:04.642Z,99140.33
2019-03-10T05:19:09.025Z,99138.38
2019-03-10T05:20:13.390Z,99134.98
2019-03-10T05:21:17.943Z,99138.33
2019-03-10T05:22:22.252Z,99138.63
2019-03-10T05:23:33.540Z,99140.98
2019-03-10T05:24:37.920Z,99134.83
2019-03-10T05:25:42.223Z,99141.66
2019-03-10T05:26:46.633Z,99140.02
2019-03-10T05:27:51.041Z,99141.14
2019-03-10T05:28:55.501Z,99146.64
2019-03-10T05:29:59.884Z,99146.11
2019-03-10T05:31:03.935Z,99144.33
2019-03-10T05:32:08.038Z,99149.03
2019-03-10T05:33:12.068Z,99146.56
2019-03-10T05:34:16.184Z,99155.89
2019-03-10T05:35:20.216Z,99150.56
2019-03-10T05:36:24.302Z,99158.56
2019-03-10T05:37:28.305Z,99156.60
2019-03-10T05:38:32.332Z,99158.11
2019-03-10T05:39:36.432Z,99154.31
2019-03-10T05:40:40.490Z,99160.97
2019-03-10T05:41:44.550Z,99159.33
2019-03-10T05:42:49.000Z,99167.83
2019-03-10T05:43:53.295Z,99159.22
2019-03-10T05:44:57.788Z,99162.90
2019-03-10T05:46:02.135Z,99166.38
2019-03-10T05:47:06.541Z,99168.73
2019-03-10T05:48:10.840Z,99166.07
2019-03-10T05:49:15.004Z,99166.84
2019-03-10T05:50:19.364Z,99167.45
2019-03-10T05:51:23.670Z,99159.78
2019-03-10T05:52:27.970Z,99163.77
2019-03-10T05:53:32.298Z,99165.42
2019-03-10T05:54:36.644Z,99165.42
2019-03-10T05:55:41.063Z,99167.77
2019-03-10T05:56:45.356Z,99166.84
2019-03-10T05:57:49.748Z,99165.50
2019-03-10T05:58:54.155Z,99171.45
2019-03-10T05:59:58.531Z,99169.90
2019-03-10T06:01:02.830Z,99167.91
2019-03-10T06:02:07.377Z,99173.44
2019-03-10T06:03:11.393Z,99173.13
2019-03-10T06:04:15.675Z,99173.88
2019-03-10T06:05:20.112Z,99176.43
2019-03-10T06:06:24.530Z,99176.74
2019-03-10T06:07:28.905Z,99176.55
2019-03-10T06:08:33.141Z,99177.14
2019-03-10T06:09:37.702Z,99185.75
2019-03-10T06:10:42.036Z,99183.20
2019-03-10T06:11:46.501Z,99186.17
2019-03-10T06:12:50.751Z,99187.00
2019-03-10T06:13:55.212Z,99190.95
2019-03-10T06:14:59.521Z,99194.52
2019-03-10T06:16:03.927Z,99192.02
2019-03-10T06:17:08.424Z,99185.13
2019-03-10T06:18:13.991Z,99188.30
2019-03-10T06:19:17.286Z,99190.19
2019-03-10T06:20:21.738Z,99192.45
2019-03-10T06:21:26.043Z,99195.33
2019-03-10T06:22:30.552Z,99194.94
2019-03-10T06:23:34.797Z,99194.89
2019-03-10T06:24:39.162Z,99195.20
2019-03-10T06:25:43.614Z,99195.83
2019-03-10T06:26:48.020Z,99199.77
2019-03-10T06:27:52.352Z,99191.78
2019-03-10T06:28:56.616Z,99195.91
2019-03-10T06:30:00.947Z,99199.20
2019-03-10T06:31:05.326Z,99205.97
2019-03-10T06:32:09.770Z,99205.46
2019-03-10T06:33:14.191Z,99212.43
2019-03-10T06:34:18.469Z,99209.09
2019-03-10T06:35:22.863Z,99212.50
2019-03-10T06:36:27.021Z,99206.16
2019-03-10T06:37:31.407Z,99209.83
2019-03-10T06:38:35.839Z,99207.94
2019-03-10T06:39:40.196Z,99209.28
2019-03-10T06:40:44.457Z,99209.59
2019-03-10T06:41:48.735Z,99207.23
2019-03-10T06:42:53.103Z,99215.16
2019-03-10T06:43:57.474Z,99214.97
2019-03-10T06:45:01.962Z,99201.48
2019-03-10T06:46:06.309Z,99208.50
2019-03-10T06:47:10.694Z,99210.34
2019-03-10T06:48:14.989Z,99211.76
2019-03-10T06:49:19.417Z,99205.46
2019-03-10T06:50:23.776Z,99211.49
2019-03-10T06:51:27.813Z,99205.97
2019-03-10T06:52:32.225Z,99209.72
2019-03-10T06:53:36.658Z,99218.14
2019-03-10T06:54:41.245Z,99211.76
2019-03-10T06:55:45.689Z,99207.05
2019-03-10T06:56:50.232Z,99204.12
2019-03-10T06:57:54.728Z,99208.27
2019-03-10T06:58:58.976Z,99213.32
2019-03-10T07:00:03.529Z,99199.38
2019-03-10T07:01:08.006Z,99210.73
2019-03-10T07:02:12.335Z,99212.43
2019-03-10T07:03:16.663Z,99210.11
2019-03-10T07:04:21.179Z,99211.49
2019-03-10T07:05:25.526Z,99205.92
2019-03-10T07:06:29.896Z,99211.93
2019-03-10T07:07:34.389Z,99210.75
2019-03-10T07:08:38.683Z,99214.55
2019-03-10T07:09:42.990Z,99215.73
2019-03-10T07:10:47.470Z,99213.21
2019-03-10T07:11:51.839Z,99215.61
2019-03-10T07:12:56.174Z,99224.86
2019-03-10T07:14:00.536Z,99222.14
2019-03-10T07:15:05.037Z,99216.58
2019-03-10T07:16:09.489Z,99219.41
2019-03-10T07:17:13.839Z,99212.75
2019-03-10T07:18:18.277Z,99215.92
2019-03-10T07:19:23.036Z,99214.73
2019-03-10T07:20:27.423Z,99219.17
2019-03-10T07:21:31.935Z,99221.13
2019-03-10T07:22:36.356Z,99220.04
2019-03-10T07:23:40.752Z,99224.34
2019-03-10T07:24:45.155Z,99218.66
2019-03-10T07:25:53.592Z,99220.62
2019-03-10T07:26:58.015Z,99224.92
2019-03-10T07:28:15.198Z,99222.89
2019-03-10T07:29:26.092Z,99223.72
2019-03-10T07:30:37.661Z,99227.71
2019-03-10T07:32:01.009Z,99223.41
2019-03-10T07:33:15.306Z,99222.03
2019-03-10T07:34:26.609Z,99219.68
2019-03-10T07:35:37.782Z,99217.95
2019-03-10T07:37:01.997Z,99219.56
2019-03-10T07:38:13.197Z,99219.56
2019-03-10T07:39:31.350Z,99214.66
2019-03-10T07:41:43.555Z,99221.75
2019-03-10T07:43:51.681Z,99217.70
2019-03-10T07:45:34.471Z,99214.60
2019-03-10T07:46:47.885Z,99227.61
2019-03-10T07:48:00.193Z,99219.94
2019-03-10T07:49:23.718Z,99227.97
2019-03-10T07:51:39.432Z,99223.73
2019-03-10T07:52:52.667Z,99225.70
2019-03-10T07:54:05.567Z,99229.73
2019-03-10T07:56:15.901Z,99226.14
2019-03-10T07:57:40.411Z,99218.61
2019-03-10T07:58:51.798Z,99223.34
2019-03-10T08:00:01.751Z,99225.07
2019-03-10T08:01:10.902Z,99224.88
2019-03-10T08:02:22.913Z,99231.73
2019-03-10T08:04:04.431Z,99225.70
2019-03-10T08:05:19.892Z,99228.98
2019-03-10T08:06:35.669Z,99228.55
2019-03-10T08:07:44.996Z,99231.73
2019-03-10T08:09:01.285Z,99235.64
2019-03-10T08:10:12.856Z,99236.34
2019-03-10T08:11:23.982Z,99230.76
2019-03-10T08:12:33.308Z,99226.45
2019-03-10T08:13:42.721Z,99233.26
2019-03-10T08:14:51.183Z,99232.04
2019-03-10T08:16:06.647Z,99226.90
2019-03-10T08:18:19.987Z,99229.25
2019-03-10T08:19:34.496Z,99229.77
2019-03-10T08:20:46.906Z,99229.68
2019-03-10T08:21:56.243Z,99234.27
2019-03-10T08:23:20.382Z,99235.91
2019-03-10T08:24:34.568Z,99244.21
2019-03-10T08:25:48.094Z,99238.49
2019-03-10T08:27:03.121Z,99250.28
2019-03-10T08:28:12.228Z,99244.79
2019-03-10T08:29:20.417Z,99243.77
2019-03-10T08:30:29.633Z,99240.41
2019-03-10T08:31:54.712Z,99243.89
2019-03-10T08:33:03.816Z,99244.13
2019-03-10T08:34:13.342Z,99235.19
2019-03-10T08:35:22.769Z,99233.03
2019-03-10T08:36:32.078Z,99240.33
2019-03-10T08:38:45.397Z,99239.83
2019-03-10T08:40:30.024Z,99236.97
2019-03-10T08:41:43.874Z,99248.91
2019-03-10T08:42:51.967Z,99237.86
2019-03-10T08:45:00.647Z,99243.50
2019-03-10T08:46:10.054Z,99242.19
2019-03-10T08:47:26.247Z,99246.50
2019-03-10T08:48:36.466Z,99243.20
2019-03-10T08:49:45.816Z,99234.56
2019-03-10T08:51:01.033Z,99247.75
2019-03-10T08:52:09.490Z,99240.73
2019-03-10T08:53:19.130Z,99239.20
2019-03-10T08:54:39.503Z,99237.73
2019-03-10T08:55:51.625Z,99241.72
2019-03-10T08:57:03.186Z,99239.69
2019-03-10T08:58:12.582Z,99241.53
2019-03-10T08:59:21.930Z,99244.15
2019-03-10T09:00:40.164Z,99237.53
2019-03-10T09:01:55.937Z,99238.36
2019-03-10T09:03:20.318Z,99241.17
2019-03-10T09:04:40.790Z,99238.51
2019-03-10T09:05:50.442Z,99239.77
2019-03-10T09:09:04.799Z,99241.59
2019-03-10T09:10:26.937Z,99244.21
2019-03-10T09:11:38.141Z,99237.86
2019-03-10T09:13:05.854Z,99242.44
2019-03-10T09:14:21.118Z,99247.24
2019-03-10T09:15:30.784Z,99248.13
2019-03-10T09:16:40.978Z,99248.47
2019-03-10T09:19:53.108Z,99250.55
2019-03-10T09:21:16.566Z,99244.28
2019-03-10T09:22:27.916Z,99247.02
2019-03-10T09:23:36.348Z,99245.20
2019-03-10T09:24:55.802Z,99246.75
2019-03-10T09:28:11.391Z,99246.30
2019-03-10T09:29:21.486Z,99247.44
2019-03-10T09:30:32.926Z,99245.99
2019-03-10T09:31:42.340Z,99254.74
2019-03-10T09:34:58.338Z,99252.34
2019-03-10T09:36:07.869Z,99256.52
2019-03-10T09:37:19.450Z,99253.72
2019-03-10T09:38:33.944Z,99253.32
2019-03-10T09:39:43.216Z,99264.03
2019-03-10T09:40:58.514Z,99254.14
2019-03-10T09:43:08.714Z,99253.32
2019-03-10T09:44:19.018Z,99257.45
2019-03-10T09:45:28.513Z,99253.32
2019-03-10T09:46:41.756Z,99257.44
2019-03-10T09:47:52.982Z,99255.88
2019-03-10T09:49:04.381Z,99252.30
2019-03-10T09:50:28.090Z,99256.41
2019-03-10T09:51:38.697Z,99252.16
2019-03-10T09:52:54.277Z,99257.05
2019-03-10T09:54:08.697Z,99255.84
2019-03-10T09:56:16.007Z,99252.33
2019-03-10T09:57:30.170Z,99253.38
2019-03-10T09:58:46.551Z,99260.78
2019-03-10T10:00:02.717Z,99259.00
2019-03-10T10:01:15.049Z,99259.00
2019-03-10T10:02:28.750Z,99257.98
2019-03-10T10:03:38.190Z,99258.77
2019-03-10T10:04:47.414Z,99261.35
2019-03-10T10:07:03.500Z,99260.64
2019-03-10T10:08:12.922Z,99261.16
2019-03-10T10:09:24.142Z,99258.80
2019-03-10T10:10:33.674Z,99254.96
2019-03-10T10:11:51.152Z,99251.58
2019-03-10T10:15:07.547Z,99251.12
2019-03-10T10:16:20.759Z,99248.91
2019-03-10T10:17:29.148Z,99249.53
2019-03-10T10:18:37.562Z,99241.73
2019-03-10T10:19:48.834Z,99244.83
2019-03-10T10:21:18.343Z,99239.73
2019-03-10T10:22:34.698Z,99241.49
2019-03-10T10:23:44.873Z,99242.41
2019-03-10T10:26:59.054Z,99246.50
2019-03-10T10:28:10.505Z,99248.77
2019-03-10T10:29:23.723Z,99249.69
2019-03-10T10:31:42.483Z,99245.49
2019-03-10T10:32:53.641Z,99242.52
2019-03-10T10:34:32.050Z,99245.13
2019-03-10T10:36:42.411Z,99239.78
2019-03-10T10:37:50.827Z,99228.34
2019-03-10T10:39:00.463Z,99238.25
2019-03-10T10:40:11.514Z,99237.94
2019-03-10T10:41:20.925Z,99246.16
2019-03-10T10:42:38.678Z,99245.78
2019-03-10T10:43:50.143Z,99246.09
2019-03-10T10:45:57.236Z,99243.84
2019-03-10T10:47:12.486Z,99240.70
2019-03-10T10:48:26.344Z,99242.48
2019-03-10T10:49:37.678Z,99242.08
2019-03-10T10:51:44.753Z,99245.73
2019-03-10T10:56:52.187Z,99242.66
2019-03-10T10:58:20.002Z,99244.10
2019-03-10T10:59:34.426Z,99234.55
2019-03-10T11:00:43.171Z,99237.26
2019-03-10T11:01:55.291Z,99237.91
2019-03-10T11:03:05.150Z,99242.68
2019-03-10T11:05:12.427Z,99237.23
2019-03-10T11:06:29.115Z,99242.33
2019-03-10T11:07:53.520Z,99235.67
2019-03-10T11:09:06.917Z,99241.53
2019-03-10T11:10:16.539Z,99229.09
2019-03-10T11:11:30.898Z,99229.09
2019-03-10T11:12:44.247Z,99226.59
2019-03-10T11:13:57.842Z,99223.61
2019-03-10T11:15:18.448Z,99229.42
2019-03-10T11:16:34.925Z,99229.81
2019-03-10T11:17:44.038Z,99228.75
2019-03-10T11:19:00.760Z,99227.72
2019-03-10T11:22:15.381Z,99232.72
2019-03-10T11:23:24.746Z,99229.09
2019-03-10T11:24:48.886Z,99220.22
2019-03-10T11:26:00.500Z,99227.55
2019-03-10T11:27:09.658Z,99231.27
2019-03-10T11:28:49.461Z,99234.05
2019-03-10T11:30:05.828Z,99234.02
2019-03-10T11:31:17.226Z,99222.59
2019-03-10T11:32:27.390Z,99228.02
2019-03-10T11:34:36.258Z,99222.64
2019-03-10T11:35:49.323Z,99219.34
2019-03-10T11:37:12.750Z,99216.22
2019-03-10T11:38:37.188Z,99217.80
2019-03-10T11:40:43.507Z,99221.47
2019-03-10T11:41:54.254Z,99217.27
2019-03-10T11:43:18.917Z,99219.83
2019-03-10T11:44:34.109Z,99216.55
2019-03-10T11:45:43.325Z,99225.95
2019-03-10T11:47:51.330Z,99233.71
2019-03-10T11:49:02.298Z,99218.64
2019-03-10T11:52:16.514Z,99222.35
2019-03-10T11:53:26.014Z,99225.48
2019-03-10T11:54:35.568Z,99220.72
2019-03-10T11:56:16.092Z,99217.08
2019-03-10T11:57:27.456Z,99210.13
2019-03-10T11:58:35.948Z,99214.38
2019-03-10T11:59:45.482Z,99218.02
2019-03-10T12:00:56.765Z,99221.80
2019-03-10T12:02:16.174Z,99219.25
2019-03-10T12:03:18.817Z,99212.33
2019-03-10T12:04:40.401Z,99210.55
2019-03-10T12:06:55.037Z,99214.31
2019-03-10T12:08:05.170Z,99212.37
2019-03-10T12:09:25.599Z,99208.50
2019-03-10T12:10:29.992Z,99214.00
2019-03-10T12:11:34.481Z,99239.97
2019-03-10T12:12:38.830Z,99218.25
2019-03-10T12:13:43.201Z,99224.72
2019-03-10T12:14:47.550Z,99218.75
2019-03-10T12:15:51.622Z,99213.73
2019-03-10T12:16:55.642Z,99205.39
2019-03-10T12:17:59.837Z,99226.31
2019-03-10T12:19:04.057Z,99217.02
2019-03-10T12:20:09.362Z,99223.37
2019-03-10T12:21:13.508Z,99223.94
2019-03-10T12:22:17.642Z,99208.47
2019-03-10T12:23:21.898Z,99217.43
2019-03-10T12:24:26.057Z,99214.13
2019-03-10T12:25:30.213Z,99215.53
2019-03-10T12:26:34.397Z,99217.58
2019-03-10T12:27:38.556Z,99212.46
2019-03-10T12:28:42.830Z,99214.94
2019-03-10T12:29:46.902Z,99229.11
2019-03-10T12:30:51.009Z,99217.39
2019-03-10T12:31:55.093Z,99218.56
2019-03-10T12:32:59.171Z,99212.84
2019-03-10T12:34:05.283Z,99218.08
2019-03-10T12:35:07.679Z,99213.39
2019-03-10T12:36:11.711Z,99208.84
2019-03-10T12:37:15.727Z,99212.06
2019-03-10T12:38:19.812Z,99216.52
2019-03-10T12:39:24.053Z,99207.94
2019-03-10T12:40:28.182Z,99203.56
2019-03-10T12:41:32.258Z,99206.61
2019-03-10T12:42:36.357Z,99213.16
2019-03-10T12:43:40.406Z,99213.63
2019-03-10T12:44:44.544Z,99207.34
2019-03-10T12:45:48.769Z,99227.62
2019-03-10T12:46:52.792Z,99221.45
2019-03-10T12:47:56.892Z,99210.70
2019-03-10T12:49:00.968Z,99209.37
2019-03-10T12:50:05.631Z,99207.05
2019-03-10T12:51:09.708Z,99211.01
2019-03-10T12:52:13.800Z,99222.88
2019-03-10T12:53:17.992Z,99228.75
2019-03-10T12:54:22.065Z,99216.81
2019-03-10T12:55:26.164Z,99210.39
2019-03-10T12:56:30.287Z,99219.11
2019-03-10T12:57:34.421Z,99213.81
2019-03-10T12:58:38.464Z,99218.27
2019-03-10T12:59:42.586Z,99225.46
2019-03-10T13:00:46.791Z,99214.30
2019-03-10T13:01:50.886Z,99222.83
2019-03-10T13:02:55.008Z,99212.92
2019-03-10T13:03:59.434Z,99212.62
2019-03-10T13:05:03.516Z,99210.97
2019-03-10T13:06:07.766Z,99216.32
2019-03-10T13:07:11.856Z,99210.67
2019-03-10T13:08:16.150Z,99215.20
2019-03-10T13:09:20.235Z,99213.75
2019-03-10T13:10:24.465Z,99220.79
2019-03-10T13:11:28.738Z,99222.95
2019-03-10T13:12:33.186Z,99219.86
2019-03-10T13:13:37.524Z,99211.09
2019-03-10T13:14:41.906Z,99224.19
2019-03-10T13:15:46.019Z,99216.55
2019-03-10T13:16:50.222Z,99221.67
2019-03-10T13:17:54.466Z,99224.67
2019-03-10T13:18:58.713Z,99212.05
2019-03-10T13:20:03.319Z,99222.77
2019-03-10T13:21:07.738Z,99225.98
2019-03-10T13:22:12.373Z,99222.49
2019-03-10T13:23:16.867Z,99219.03
2019-03-10T13:24:21.312Z,99217.96
2019-03-10T13:25:25.805Z,99214.45
2019-03-10T13:26:30.217Z,99217.61
2019-03-10T13:27:34.803Z,99217.34
2019-03-10T13:28:39.234Z,99218.30
2019-03-10T13:29:43.395Z,99215.71
2019-03-10T13:30:47.632Z,99215.27
2019-03-10T13:31:51.969Z,99217.95
2019-03-10T13:32:56.404Z,99211.45
2019-03-10T13:34:00.933Z,99211.62
2019-03-10T13:35:05.635Z,99229.06
2019-03-10T13:36:10.232Z,99215.14
2019-03-10T13:37:14.630Z,99209.92
2019-03-10T13:38:19.023Z,99214.27
2019-03-10T13:39:23.376Z,99218.47
2019-03-10T13:40:27.831Z,99212.80
2019-03-10T13:41:32.209Z,99206.55
2019-03-10T13:42:36.521Z,99212.00
2019-03-10T13:43:41.043Z,99209.64
2019-03-10T13:44:45.330Z,99208.34
2019-03-10T13:45:49.677Z,99203.13
2019-03-10T13:46:53.955Z,99213.70
2019-03-10T13:47:58.333Z,99213.79
2019-03-10T13:49:02.673Z,99200.44
2019-03-10T13:50:08.086Z,99205.98
2019-03-10T13:51:12.494Z,99208.14
2019-03-10T13:52:16.881Z,99209.39
2019-03-10T13:53:21.187Z,99222.50
2019-03-10T13:54:25.557Z,99212.19
2019-03-10T13:55:29.706Z,99212.64
2019-03-10T13:56:34.013Z,99201.95